sensor_id;sensor_type;location;lat;lon;timestamp;pressure;altitude;pressure_sealevel;temperature
67966;BMP280;54749;47.850;9.002;2023-03-03T00:01:24;96136.84;;;1.38
67966;BMP280;54749;47.850;9.002;2023-03-03T00:03:52;96134.38;;;1.36
67966;BMP280;54749;47.850;9.002;2023-03-03T00:06:20;96140.41;;;1.31
67966;BMP280;54749;47.850;9.002;2023-03-03T00:08:47;96138.25;;;1.22
67966;BMP280;54749;47.850;9.002;2023-03-03T00:11:14;96135.06;;;1.19
67966;BMP280;54749;47.850;9.002;2023-03-03T00:13:50;96145.19;;;1.14
67966;BMP280;54749;47.850;9.002;2023-03-03T00:18:49;96149.78;;;1.04
67966;BMP280;54749;47.850;9.002;2023-03-03T00:21:52;96145.50;;;1.07
67966;BMP280;54749;47.850;9.002;2023-03-03T00:24:25;96149.47;;;1.11
67966;BMP280;54749;47.850;9.002;2023-03-03T00:26:55;96151.69;;;1.18
67966;BMP280;54749;47.850;9.002;2023-03-03T00:31:52;96146.50;;;1.24
67966;BMP280;54749;47.850;9.002;2023-03-03T00:34:27;96148.84;;;1.27
67966;BMP280;54749;47.850;9.002;2023-03-03T00:36:55;96146.19;;;1.31
67966;BMP280;54749;47.850;9.002;2023-03-03T00:39:34;96138.03;;;1.28
67966;BMP280;54749;47.850;9.002;2023-03-03T00:42:10;96142.06;;;1.30
67966;BMP280;54749;47.850;9.002;2023-03-03T00:44:44;96139.53;;;1.32
67966;BMP280;54749;47.850;9.002;2023-03-03T00:52:45;96128.59;;;1.36
67966;BMP280;54749;47.850;9.002;2023-03-03T00:55:17;96133.69;;;1.33
67966;BMP280;54749;47.850;9.002;2023-03-03T00:57:44;96137.91;;;1.31
67966;BMP280;54749;47.850;9.002;2023-03-03T01:00:11;96129.75;;;1.27
67966;BMP280;54749;47.850;9.002;2023-03-03T01:02:39;96133.91;;;1.27
67966;BMP280;54749;47.850;9.002;2023-03-03T01:05:15;96127.28;;;1.27
67966;BMP280;54749;47.850;9.002;2023-03-03T01:07:43;96130.44;;;1.31
67966;BMP280;54749;47.850;9.002;2023-03-03T01:10:10;96126.97;;;1.35
67966;BMP280;54749;47.850;9.002;2023-03-03T01:12:38;96130.22;;;1.37
67966;BMP280;54749;47.850;9.002;2023-03-03T01:15:06;96133.56;;;1.36
67966;BMP280;54749;47.850;9.002;2023-03-03T01:17:34;96132.06;;;1.32
67966;BMP280;54749;47.850;9.002;2023-03-03T01:20:02;96129.03;;;1.25
67966;BMP280;54749;47.850;9.002;2023-03-03T01:22:29;96132.63;;;1.17
67966;BMP280;54749;47.850;9.002;2023-03-03T01:24:56;96134.50;;;1.12
67966;BMP280;54749;47.850;9.002;2023-03-03T01:27:25;96124.78;;;1.06
67966;BMP280;54749;47.850;9.002;2023-03-03T01:29:55;96127.56;;;0.99
67966;BMP280;54749;47.850;9.002;2023-03-03T01:32:23;96136.03;;;0.94
67966;BMP280;54749;47.850;9.002;2023-03-03T01:34:51;96129.03;;;0.82
67966;BMP280;54749;47.850;9.002;2023-03-03T01:37:18;96136.00;;;0.73
67966;BMP280;54749;47.850;9.002;2023-03-03T01:39:53;96136.16;;;0.69
67966;BMP280;54749;47.850;9.002;2023-03-03T01:42:21;96134.56;;;0.66
67966;BMP280;54749;47.850;9.002;2023-03-03T01:44:48;96132.31;;;0.60
67966;BMP280;54749;47.850;9.002;2023-03-03T01:47:21;96134.31;;;0.51
67966;BMP280;54749;47.850;9.002;2023-03-03T01:50:03;96136.88;;;0.48
67966;BMP280;54749;47.850;9.002;2023-03-03T01:52:38;96131.28;;;0.43
67966;BMP280;54749;47.850;9.002;2023-03-03T01:55:17;96138.75;;;0.43
67966;BMP280;54749;47.850;9.002;2023-03-03T01:57:51;96128.81;;;0.43
67966;BMP280;54749;47.850;9.002;2023-03-03T02:00:22;96132.03;;;0.45
67966;BMP280;54749;47.850;9.002;2023-03-03T02:02:50;96130.31;;;0.47
67966;BMP280;54749;47.850;9.002;2023-03-03T02:05:17;96120.38;;;0.47
67966;BMP280;54749;47.850;9.002;2023-03-03T02:07:44;96112.97;;;0.46
67966;BMP280;54749;47.850;9.002;2023-03-03T02:10:15;96118.75;;;0.46
67966;BMP280;54749;47.850;9.002;2023-03-03T02:12:52;96119.44;;;0.50
67966;BMP280;54749;47.850;9.002;2023-03-03T02:15:32;96123.56;;;0.51
67966;BMP280;54749;47.850;9.002;2023-03-03T02:18:11;96121.66;;;0.57
67966;BMP280;54749;47.850;9.002;2023-03-03T02:21:02;96105.13;;;0.56
67966;BMP280;54749;47.850;9.002;2023-03-03T02:23:45;96110.03;;;0.57
67966;BMP280;54749;47.850;9.002;2023-03-03T02:26:26;96108.34;;;0.58
67966;BMP280;54749;47.850;9.002;2023-03-03T02:28:59;96114.97;;;0.59
67966;BMP280;54749;47.850;9.002;2023-03-03T02:31:29;96110.09;;;0.56
67966;BMP280;54749;47.850;9.002;2023-03-03T02:33:56;96110.09;;;0.56
67966;BMP280;54749;47.850;9.002;2023-03-03T02:36:29;96115.94;;;0.55
67966;BMP280;54749;47.850;9.002;2023-03-03T02:39:08;96113.44;;;0.55
67966;BMP280;54749;47.850;9.002;2023-03-03T02:44:37;96110.03;;;0.57
67966;BMP280;54749;47.850;9.002;2023-03-03T02:47:04;96110.00;;;0.59
67966;BMP280;54749;47.850;9.002;2023-03-03T02:49:34;96115.09;;;0.56
67966;BMP280;54749;47.850;9.002;2023-03-03T02:52:04;96108.41;;;0.56
67966;BMP280;54749;47.850;9.002;2023-03-03T02:54:33;96106.06;;;0.52
67966;BMP280;54749;47.850;9.002;2023-03-03T02:57:02;96099.22;;;0.58
67966;BMP280;54749;47.850;9.002;2023-03-03T02:59:29;96095.59;;;0.67
67966;BMP280;54749;47.850;9.002;2023-03-03T03:02:04;96087.84;;;0.74
67966;BMP280;54749;47.850;9.002;2023-03-03T03:04:33;96098.41;;;0.80
67966;BMP280;54749;47.850;9.002;2023-03-03T03:07:01;96094.09;;;0.85
67966;BMP280;54749;47.850;9.002;2023-03-03T03:09:31;96089.75;;;0.90
67966;BMP280;54749;47.850;9.002;2023-03-03T03:11:58;96093.75;;;0.94
67966;BMP280;54749;47.850;9.002;2023-03-03T03:14:31;96097.78;;;0.96
67966;BMP280;54749;47.850;9.002;2023-03-03T03:16:58;96082.03;;;0.96
67966;BMP280;54749;47.850;9.002;2023-03-03T03:19:26;96090.75;;;0.86
67966;BMP280;54749;47.850;9.002;2023-03-03T03:21:55;96089.41;;;0.78
67966;BMP280;54749;47.850;9.002;2023-03-03T03:24:22;96091.06;;;0.77
67966;BMP280;54749;47.850;9.002;2023-03-03T03:26:56;96098.41;;;0.80
67966;BMP280;54749;47.850;9.002;2023-03-03T03:29:24;96093.28;;;0.85
67966;BMP280;54749;47.850;9.002;2023-03-03T03:31:52;96098.94;;;0.88
67966;BMP280;54749;47.850;9.002;2023-03-03T03:34:19;96098.94;;;0.88
67966;BMP280;54749;47.850;9.002;2023-03-03T03:36:48;96109.66;;;0.90
67966;BMP280;54749;47.850;9.002;2023-03-03T03:39:16;96095.59;;;0.89
67966;BMP280;54749;47.850;9.002;2023-03-03T03:41:46;96107.16;;;0.90
67966;BMP280;54749;47.850;9.002;2023-03-03T03:44:13;96106.34;;;0.89
67966;BMP280;54749;47.850;9.002;2023-03-03T03:46:40;96113.66;;;0.94
67966;BMP280;54749;47.850;9.002;2023-03-03T03:49:08;96095.25;;;0.98
67966;BMP280;54749;47.850;9.002;2023-03-03T03:51:36;96105.72;;;1.05
67966;BMP280;54749;47.850;9.002;2023-03-03T03:54:08;96110.66;;;1.07
67966;BMP280;54749;47.850;9.002;2023-03-03T03:56:36;96099.06;;;1.06
67966;BMP280;54749;47.850;9.002;2023-03-03T03:59:07;96092.63;;;1.01
67966;BMP280;54749;47.850;9.002;2023-03-03T04:01:36;96106.75;;;1.00
67966;BMP280;54749;47.850;9.002;2023-03-03T04:04:03;96095.03;;;1.04
67966;BMP280;54749;47.850;9.002;2023-03-03T04:06:31;96100.78;;;1.04
67966;BMP280;54749;47.850;9.002;2023-03-03T04:08:59;96100.97;;;1.00
67966;BMP280;54749;47.850;9.002;2023-03-03T04:11:28;96097.69;;;0.99
67966;BMP280;54749;47.850;9.002;2023-03-03T04:13:55;96097.53;;;1.04
67966;BMP280;54749;47.850;9.002;2023-03-03T04:16:22;96094.06;;;1.07
67966;BMP280;54749;47.850;9.002;2023-03-03T04:18:50;96099.66;;;1.12
67966;BMP280;54749;47.850;9.002;2023-03-03T04:21:17;96102.78;;;1.17
67966;BMP280;54749;47.850;9.002;2023-03-03T04:23:45;96095.38;;;1.16
67966;BMP280;54749;47.850;9.002;2023-03-03T04:26:12;96100.44;;;1.13
67966;BMP280;54749;47.850;9.002;2023-03-03T04:28:40;96107.88;;;1.14
67966;BMP280;54749;47.850;9.002;2023-03-03T04:31:08;96101.91;;;1.18
67966;BMP280;54749;47.850;9.002;2023-03-03T04:33:35;96105.97;;;1.21
67966;BMP280;54749;47.850;9.002;2023-03-03T04:36:04;96106.97;;;1.17
67966;BMP280;54749;47.850;9.002;2023-03-03T04:38:31;96107.75;;;1.17
67966;BMP280;54749;47.850;9.002;2023-03-03T04:40:58;96115.13;;;1.20
67966;BMP280;54749;47.850;9.002;2023-03-03T04:43:28;96110.06;;;1.22
67966;BMP280;54749;47.850;9.002;2023-03-03T04:45:56;96105.00;;;1.24
67966;BMP280;54749;47.850;9.002;2023-03-03T04:48:23;96115.75;;;1.25
67966;BMP280;54749;47.850;9.002;2023-03-03T04:50:51;96107.53;;;1.23
67966;BMP280;54749;47.850;9.002;2023-03-03T04:53:19;96107.47;;;1.24
67966;BMP280;54749;47.850;9.002;2023-03-03T04:55:49;96098.34;;;1.25
67966;BMP280;54749;47.850;9.002;2023-03-03T04:58:17;96109.72;;;1.30
67966;BMP280;54749;47.850;9.002;2023-03-03T05:00:46;96101.34;;;1.33
67966;BMP280;54749;47.850;9.002;2023-03-03T05:03:13;96093.31;;;1.67
67966;BMP280;54749;47.850;9.002;2023-03-03T05:05:41;96096.44;;;2.10
67966;BMP280;54749;47.850;9.002;2023-03-03T05:08:08;96087.53;;;2.43
67966;BMP280;54749;47.850;9.002;2023-03-03T05:10:35;96093.84;;;2.69
67966;BMP280;54749;47.850;9.002;2023-03-03T05:13:02;96102.13;;;2.51
67966;BMP280;54749;47.850;9.002;2023-03-03T05:15:30;96105.34;;;2.35
67966;BMP280;54749;47.850;9.002;2023-03-03T05:17:57;96106.09;;;2.18
67966;BMP280;54749;47.850;9.002;2023-03-03T05:20:24;96104.16;;;2.05
67966;BMP280;54749;47.850;9.002;2023-03-03T05:22:51;96116.25;;;1.94
67966;BMP280;54749;47.850;9.002;2023-03-03T05:25:19;96115.91;;;1.82
67966;BMP280;54749;47.850;9.002;2023-03-03T05:27:46;96117.03;;;1.75
67966;BMP280;54749;47.850;9.002;2023-03-03T05:30:13;96110.63;;;1.70
67966;BMP280;54749;47.850;9.002;2023-03-03T05:32:40;96114.34;;;1.60
67966;BMP280;54749;47.850;9.002;2023-03-03T05:35:08;96103.50;;;1.61
67966;BMP280;54749;47.850;9.002;2023-03-03T05:37:35;96115.22;;;1.59
67966;BMP280;54749;47.850;9.002;2023-03-03T05:40:02;96125.91;;;1.61
67966;BMP280;54749;47.850;9.002;2023-03-03T05:42:30;96117.06;;;1.54
67966;BMP280;54749;47.850;9.002;2023-03-03T05:44:57;96117.25;;;1.50
67966;BMP280;54749;47.850;9.002;2023-03-03T05:47:24;96130.44;;;1.52
67966;BMP280;54749;47.850;9.002;2023-03-03T05:49:51;96131.38;;;1.49
67966;BMP280;54749;47.850;9.002;2023-03-03T05:52:18;96116.56;;;1.46
67966;BMP280;54749;47.850;9.002;2023-03-03T05:54:45;96133.91;;;1.48
67966;BMP280;54749;47.850;9.002;2023-03-03T05:57:11;96124.03;;;1.46
67966;BMP280;54749;47.850;9.002;2023-03-03T05:59:39;96136.59;;;1.43
67966;BMP280;54749;47.850;9.002;2023-03-03T06:02:06;96125.75;;;1.44
67966;BMP280;54749;47.850;9.002;2023-03-03T06:04:33;96136.66;;;1.42
67966;BMP280;54749;47.850;9.002;2023-03-03T06:07:00;96128.38;;;1.41
67966;BMP280;54749;47.850;9.002;2023-03-03T06:09:28;96145.00;;;1.41
67966;BMP280;54749;47.850;9.002;2023-03-03T06:11:54;96134.34;;;1.38
67966;BMP280;54749;47.850;9.002;2023-03-03T06:14:22;96144.19;;;1.40
67966;BMP280;54749;47.850;9.002;2023-03-03T06:16:52;96146.78;;;1.38
67966;BMP280;54749;47.850;9.002;2023-03-03T06:19:19;96145.91;;;1.39
67966;BMP280;54749;47.850;9.002;2023-03-03T06:21:46;96141.69;;;1.40
67966;BMP280;54749;47.850;9.002;2023-03-03T06:24:14;96146.44;;;1.46
67966;BMP280;54749;47.850;9.002;2023-03-03T06:26:41;96151.44;;;1.46
67966;BMP280;54749;47.850;9.002;2023-03-03T06:29:08;96153.03;;;1.47
67966;BMP280;54749;47.850;9.002;2023-03-03T06:31:35;96155.41;;;1.50
67966;BMP280;54749;47.850;9.002;2023-03-03T06:34:02;96157.66;;;1.56
67966;BMP280;54749;47.850;9.002;2023-03-03T06:36:29;96149.09;;;1.63
67966;BMP280;54749;47.850;9.002;2023-03-03T06:38:56;96148.91;;;1.67
67966;BMP280;54749;47.850;9.002;2023-03-03T06:41:23;96140.41;;;1.73
67966;BMP280;54749;47.850;9.002;2023-03-03T06:43:51;96149.44;;;1.75
67966;BMP280;54749;47.850;9.002;2023-03-03T06:46:17;96151.88;;;1.76
67966;BMP280;54749;47.850;9.002;2023-03-03T06:48:45;96170.84;;;1.79
67966;BMP280;54749;47.850;9.002;2023-03-03T06:51:38;96157.47;;;1.81
67966;BMP280;54749;47.850;9.002;2023-03-03T06:54:10;96164.84;;;1.84
67966;BMP280;54749;47.850;9.002;2023-03-03T06:56:39;96170.44;;;1.89
67966;BMP280;54749;47.850;9.002;2023-03-03T06:59:18;96170.13;;;1.96
67966;BMP280;54749;47.850;9.002;2023-03-03T07:01:47;96170.72;;;2.03
67966;BMP280;54749;47.850;9.002;2023-03-03T07:04:29;96161.97;;;2.12
67966;BMP280;54749;47.850;9.002;2023-03-03T07:06:59;96163.88;;;2.27
67966;BMP280;54749;47.850;9.002;2023-03-03T07:09:31;96174.97;;;2.40
67966;BMP280;54749;47.850;9.002;2023-03-03T07:12:09;96166.22;;;2.49
67966;BMP280;54749;47.850;9.002;2023-03-03T07:14:42;96177.47;;;2.59
67966;BMP280;54749;47.850;9.002;2023-03-03T07:17:14;96173.00;;;2.65
67966;BMP280;54749;47.850;9.002;2023-03-03T07:19:43;96182.94;;;2.67
67966;BMP280;54749;47.850;9.002;2023-03-03T07:22:16;96178.41;;;2.75
67966;BMP280;54749;47.850;9.002;2023-03-03T07:24:46;96171.56;;;2.79
67966;BMP280;54749;47.850;9.002;2023-03-03T07:27:25;96179.47;;;2.89
67966;BMP280;54749;47.850;9.002;2023-03-03T07:30:35;96177.50;;;2.95
67966;BMP280;54749;47.850;9.002;2023-03-03T07:32:57;96178.69;;;3.06
67966;BMP280;54749;47.850;9.002;2023-03-03T07:35:35;96170.84;;;3.14
67966;BMP280;54749;47.850;9.002;2023-03-03T07:40:53;96179.34;;;3.28
67966;BMP280;54749;47.850;9.002;2023-03-03T07:46:24;96181.97;;;3.43
67966;BMP280;54749;47.850;9.002;2023-03-03T07:48:54;96190.22;;;3.45
67966;BMP280;54749;47.850;9.002;2023-03-03T07:51:33;96189.34;;;3.46
67966;BMP280;54749;47.850;9.002;2023-03-03T07:56:41;96193.66;;;3.42
67966;BMP280;54749;47.850;9.002;2023-03-03T07:59:19;96196.34;;;3.56
67966;BMP280;54749;47.850;9.002;2023-03-03T08:01:53;96191.47;;;3.71
67966;BMP280;54749;47.850;9.002;2023-03-03T08:04:40;96201.66;;;3.84
67966;BMP280;54749;47.850;9.002;2023-03-03T08:07:18;96208.38;;;4.01
67966;BMP280;54749;47.850;9.002;2023-03-03T08:09:48;96200.44;;;4.09
67966;BMP280;54749;47.850;9.002;2023-03-03T08:12:37;96201.75;;;4.16
67966;BMP280;54749;47.850;9.002;2023-03-03T08:15:17;96219.03;;;4.20
67966;BMP280;54749;47.850;9.002;2023-03-03T08:17:46;96210.59;;;4.39
67966;BMP280;54749;47.850;9.002;2023-03-03T08:20:41;96215.63;;;4.39
67966;BMP280;54749;47.850;9.002;2023-03-03T08:23:11;96221.16;;;4.46
67966;BMP280;54749;47.850;9.002;2023-03-03T08:25:38;96214.38;;;4.48
67966;BMP280;54749;47.850;9.002;2023-03-03T08:28:10;96225.56;;;4.57
67966;BMP280;54749;47.850;9.002;2023-03-03T08:30:38;96219.50;;;4.61
67966;BMP280;54749;47.850;9.002;2023-03-03T08:33:06;96222.31;;;4.55
67966;BMP280;54749;47.850;9.002;2023-03-03T08:35:33;96213.25;;;4.53
67966;BMP280;54749;47.850;9.002;2023-03-03T08:38:00;96210.22;;;4.63
67966;BMP280;54749;47.850;9.002;2023-03-03T08:40:27;96201.91;;;4.79
67966;BMP280;54749;47.850;9.002;2023-03-03T08:42:54;96202.25;;;4.89
67966;BMP280;54749;47.850;9.002;2023-03-03T08:45:23;96201.22;;;4.92
67966;BMP280;54749;47.850;9.002;2023-03-03T08:47:50;96213.41;;;4.98
67966;BMP280;54749;47.850;9.002;2023-03-03T08:50:17;96216.66;;;5.00
67966;BMP280;54749;47.850;9.002;2023-03-03T08:52:45;96208.09;;;5.04
67966;BMP280;54749;47.850;9.002;2023-03-03T08:55:12;96215.69;;;5.03
67966;BMP280;54749;47.850;9.002;2023-03-03T08:57:39;96211.38;;;5.06
67966;BMP280;54749;47.850;9.002;2023-03-03T09:00:09;96205.66;;;5.03
67966;BMP280;54749;47.850;9.002;2023-03-03T09:02:37;96219.22;;;4.99
67966;BMP280;54749;47.850;9.002;2023-03-03T09:05:05;96212.47;;;5.01
67966;BMP280;54749;47.850;9.002;2023-03-03T09:07:33;96215.91;;;5.15
67966;BMP280;54749;47.850;9.002;2023-03-03T09:09:59;96213.06;;;5.21
67966;BMP280;54749;47.850;9.002;2023-03-03T09:12:38;96207.28;;;5.35
67966;BMP280;54749;47.850;9.002;2023-03-03T09:15:25;96208.25;;;5.33
67966;BMP280;54749;47.850;9.002;2023-03-03T09:17:54;96231.00;;;5.60
67966;BMP280;54749;47.850;9.002;2023-03-03T09:20:40;96230.22;;;5.90
67966;BMP280;54749;47.850;9.002;2023-03-03T09:28:43;96204.75;;;7.10
67966;BMP280;54749;47.850;9.002;2023-03-03T09:31:38;96215.31;;;7.83
67966;BMP280;54749;47.850;9.002;2023-03-03T09:34:24;96214.00;;;8.17
67966;BMP280;54749;47.850;9.002;2023-03-03T09:36:52;96213.75;;;8.34
67966;BMP280;54749;47.850;9.002;2023-03-03T09:39:25;96211.06;;;8.23
67966;BMP280;54749;47.850;9.002;2023-03-03T09:47:34;96225.78;;;8.17
67966;BMP280;54749;47.850;9.002;2023-03-03T09:50:29;96209.59;;;8.33
67966;BMP280;54749;47.850;9.002;2023-03-03T09:53:40;96222.00;;;8.36
67966;BMP280;54749;47.850;9.002;2023-03-03T09:56:09;96219.88;;;8.68
67966;BMP280;54749;47.850;9.002;2023-03-03T10:01:42;96218.09;;;9.18
67966;BMP280;54749;47.850;9.002;2023-03-03T10:04:48;96220.13;;;9.50
67966;BMP280;54749;47.850;9.002;2023-03-03T10:12:49;96210.28;;;9.94
67966;BMP280;54749;47.850;9.002;2023-03-03T10:15:40;96196.00;;;10.28
67966;BMP280;54749;47.850;9.002;2023-03-03T10:21:11;96224.53;;;10.41
67966;BMP280;54749;47.850;9.002;2023-03-03T10:23:53;96220.84;;;10.34
67966;BMP280;54749;47.850;9.002;2023-03-03T10:29:32;96220.72;;;10.35
67966;BMP280;54749;47.850;9.002;2023-03-03T10:32:31;96219.47;;;10.41
67966;BMP280;54749;47.850;9.002;2023-03-03T10:35:13;96227.28;;;10.38
67966;BMP280;54749;47.850;9.002;2023-03-03T10:40:56;96214.91;;;10.79
67966;BMP280;54749;47.850;9.002;2023-03-03T10:43:31;96215.00;;;11.22
67966;BMP280;54749;47.850;9.002;2023-03-03T10:46:15;96218.78;;;11.72
67966;BMP280;54749;47.850;9.002;2023-03-03T10:51:54;96208.81;;;12.63
67966;BMP280;54749;47.850;9.002;2023-03-03T10:54:32;96213.72;;;12.76
67966;BMP280;54749;47.850;9.002;2023-03-03T10:57:14;96215.88;;;12.80
67966;BMP280;54749;47.850;9.002;2023-03-03T11:00:08;96211.00;;;12.68
67966;BMP280;54749;47.850;9.002;2023-03-03T11:03:01;96210.66;;;12.61
67966;BMP280;54749;47.850;9.002;2023-03-03T11:05:59;96219.22;;;12.39
67966;BMP280;54749;47.850;9.002;2023-03-03T11:08:47;96213.38;;;12.28
67966;BMP280;54749;47.850;9.002;2023-03-03T11:11:39;96213.66;;;12.14
67966;BMP280;54749;47.850;9.002;2023-03-03T11:14:32;96213.81;;;11.59
67966;BMP280;54749;47.850;9.002;2023-03-03T11:22:27;96204.56;;;11.90
67966;BMP280;54749;47.850;9.002;2023-03-03T11:28:21;96214.50;;;11.83
67966;BMP280;54749;47.850;9.002;2023-03-03T11:31:07;96213.59;;;12.25
67966;BMP280;54749;47.850;9.002;2023-03-03T11:36:50;96195.09;;;12.86
67966;BMP280;54749;47.850;9.002;2023-03-03T11:39:22;96193.47;;;13.25
67966;BMP280;54749;47.850;9.002;2023-03-03T11:42:25;96194.72;;;13.59
67966;BMP280;54749;47.850;9.002;2023-03-03T11:44:56;96198.75;;;12.93
67966;BMP280;54749;47.850;9.002;2023-03-03T11:50:08;96194.34;;;12.95
67966;BMP280;54749;47.850;9.002;2023-03-03T11:53:13;96194.16;;;12.87
67966;BMP280;54749;47.850;9.002;2023-03-03T11:55:37;96183.94;;;12.78
67966;BMP280;54749;47.850;9.002;2023-03-03T11:58:12;96183.72;;;12.80
67966;BMP280;54749;47.850;9.002;2023-03-03T12:00:44;96173.94;;;12.76
67966;BMP280;54749;47.850;9.002;2023-03-03T12:11:07;96177.06;;;11.97
67966;BMP280;54749;47.850;9.002;2023-03-03T12:13:57;96183.44;;;11.81
67966;BMP280;54749;47.850;9.002;2023-03-03T12:19:27;96168.53;;;12.39
67966;BMP280;54749;47.850;9.002;2023-03-03T12:25:08;96172.03;;;12.58
67966;BMP280;54749;47.850;9.002;2023-03-03T12:27:47;96171.88;;;12.70
67966;BMP280;54749;47.850;9.002;2023-03-03T12:44:07;96172.16;;;11.20
67966;BMP280;54749;47.850;9.002;2023-03-03T12:47:00;96182.44;;;10.85
67966;BMP280;54749;47.850;9.002;2023-03-03T13:00:58;96179.06;;;10.18
67966;BMP280;54749;47.850;9.002;2023-03-03T13:03:48;96166.59;;;10.27
67966;BMP280;54749;47.850;9.002;2023-03-03T13:06:29;96162.13;;;10.31
67966;BMP280;54749;47.850;9.002;2023-03-03T13:14:51;96167.25;;;10.18
67966;BMP280;54749;47.850;9.002;2023-03-03T13:17:26;96173.81;;;9.98
67966;BMP280;54749;47.850;9.002;2023-03-03T13:19:57;96179.25;;;9.92
67966;BMP280;54749;47.850;9.002;2023-03-03T13:25:02;96173.72;;;9.87
67966;BMP280;54749;47.850;9.002;2023-03-03T13:27:40;96168.53;;;9.78
67966;BMP280;54749;47.850;9.002;2023-03-03T13:30:21;96170.03;;;10.03
67966;BMP280;54749;47.850;9.002;2023-03-03T13:33:05;96182.41;;;9.96
67966;BMP280;54749;47.850;9.002;2023-03-03T13:35:40;96183.50;;;9.92
67966;BMP280;54749;47.850;9.002;2023-03-03T13:38:12;96174.94;;;9.94
67966;BMP280;54749;47.850;9.002;2023-03-03T13:40:49;96176.47;;;9.84
67966;BMP280;54749;47.850;9.002;2023-03-03T13:43:24;96178.09;;;9.61
67966;BMP280;54749;47.850;9.002;2023-03-03T13:49:24;96181.53;;;9.72
67966;BMP280;54749;47.850;9.002;2023-03-03T13:52:05;96181.66;;;9.59
67966;BMP280;54749;47.850;9.002;2023-03-03T13:55:22;96180.03;;;9.58
67966;BMP280;54749;47.850;9.002;2023-03-03T13:58:32;96167.59;;;9.67
67966;BMP280;54749;47.850;9.002;2023-03-03T14:01:25;96177.13;;;9.51
67966;BMP280;54749;47.850;9.002;2023-03-03T14:04:13;96175.91;;;9.44
67966;BMP280;54749;47.850;9.002;2023-03-03T14:06:49;96169.47;;;9.41
67966;BMP280;54749;47.850;9.002;2023-03-03T14:09:37;96167.94;;;9.50
67966;BMP280;54749;47.850;9.002;2023-03-03T14:12:25;96148.44;;;9.64
67966;BMP280;54749;47.850;9.002;2023-03-03T14:15:25;96153.09;;;9.58
67966;BMP280;54749;47.850;9.002;2023-03-03T14:21:08;96135.13;;;9.98
67966;BMP280;54749;47.850;9.002;2023-03-03T14:26:13;96131.56;;;10.00
67966;BMP280;54749;47.850;9.002;2023-03-03T14:28:48;96136.50;;;9.79
67966;BMP280;54749;47.850;9.002;2023-03-03T14:31:21;96131.84;;;9.85
67966;BMP280;54749;47.850;9.002;2023-03-03T14:36:42;96132.97;;;10.04
67966;BMP280;54749;47.850;9.002;2023-03-03T14:39:32;96132.97;;;10.04
67966;BMP280;54749;47.850;9.002;2023-03-03T14:42:11;96128.78;;;10.15
67966;BMP280;54749;47.850;9.002;2023-03-03T14:47:25;96126.09;;;10.06
67966;BMP280;54749;47.850;9.002;2023-03-03T14:49:56;96126.56;;;10.11
67966;BMP280;54749;47.850;9.002;2023-03-03T14:52:30;96114.47;;;10.26
67966;BMP280;54749;47.850;9.002;2023-03-03T14:55:00;96123.22;;;10.33
67966;BMP280;54749;47.850;9.002;2023-03-03T15:02:58;96123.41;;;10.19
67966;BMP280;54749;47.850;9.002;2023-03-03T15:05:31;96121.13;;;10.27
67966;BMP280;54749;47.850;9.002;2023-03-03T15:10:37;96111.19;;;10.14
67966;BMP280;54749;47.850;9.002;2023-03-03T15:13:12;96127.53;;;9.98
67966;BMP280;54749;47.850;9.002;2023-03-03T15:16:03;96118.91;;;9.89
67966;BMP280;54749;47.850;9.002;2023-03-03T15:18:32;96124.97;;;9.87
67966;BMP280;54749;47.850;9.002;2023-03-03T15:21:12;96128.25;;;9.77
67966;BMP280;54749;47.850;9.002;2023-03-03T15:23:55;96122.91;;;9.69
67966;BMP280;54749;47.850;9.002;2023-03-03T15:26:34;96125.44;;;9.57
67966;BMP280;54749;47.850;9.002;2023-03-03T15:29:15;96123.22;;;9.52
67966;BMP280;54749;47.850;9.002;2023-03-03T15:34:40;96117.84;;;9.34
67966;BMP280;54749;47.850;9.002;2023-03-03T15:37:20;96110.78;;;9.39
67966;BMP280;54749;47.850;9.002;2023-03-03T15:40:11;96119.25;;;9.38
67966;BMP280;54749;47.850;9.002;2023-03-03T15:42:57;96118.84;;;9.44
67966;BMP280;54749;47.850;9.002;2023-03-03T15:45:59;96113.66;;;9.45
67966;BMP280;54749;47.850;9.002;2023-03-03T15:48:51;96126.81;;;9.38
67966;BMP280;54749;47.850;9.002;2023-03-03T15:51:52;96131.13;;;9.36
67966;BMP280;54749;47.850;9.002;2023-03-03T15:54:42;96135.63;;;9.20
67966;BMP280;54749;47.850;9.002;2023-03-03T16:03:04;96143.09;;;8.85
67966;BMP280;54749;47.850;9.002;2023-03-03T16:08:33;96135.41;;;8.62
67966;BMP280;54749;47.850;9.002;2023-03-03T16:11:13;96145.09;;;8.56
67966;BMP280;54749;47.850;9.002;2023-03-03T16:13:54;96143.56;;;8.41
67966;BMP280;54749;47.850;9.002;2023-03-03T16:16:41;96147.09;;;8.39
67966;BMP280;54749;47.850;9.002;2023-03-03T16:25:57;96156.28;;;8.52
67966;BMP280;54749;47.850;9.002;2023-03-03T16:28:39;96155.09;;;8.20
67966;BMP280;54749;47.850;9.002;2023-03-03T16:31:17;96158.88;;;8.01
67966;BMP280;54749;47.850;9.002;2023-03-03T16:33:49;96157.75;;;7.79
67966;BMP280;54749;47.850;9.002;2023-03-03T16:39:23;96180.63;;;7.49
67966;BMP280;54749;47.850;9.002;2023-03-03T16:50:26;96181.78;;;7.16
67966;BMP280;54749;47.850;9.002;2023-03-03T16:53:13;96173.91;;;7.08
67966;BMP280;54749;47.850;9.002;2023-03-03T17:01:11;96196.72;;;7.05
67966;BMP280;54749;47.850;9.002;2023-03-03T17:03:54;96195.16;;;7.03
67966;BMP280;54749;47.850;9.002;2023-03-03T17:06:36;96193.19;;;6.94
67966;BMP280;54749;47.850;9.002;2023-03-03T17:09:43;96199.34;;;6.89
67966;BMP280;54749;47.850;9.002;2023-03-03T17:15:41;96198.06;;;6.68
67966;BMP280;54749;47.850;9.002;2023-03-03T17:18:43;96195.91;;;6.63
67966;BMP280;54749;47.850;9.002;2023-03-03T17:24:35;96203.19;;;6.53
67966;BMP280;54749;47.850;9.002;2023-03-03T17:27:14;96216.69;;;6.51
67966;BMP280;54749;47.850;9.002;2023-03-03T17:30:12;96224.72;;;6.42
67966;BMP280;54749;47.850;9.002;2023-03-03T17:33:10;96225.59;;;6.28
67966;BMP280;54749;47.850;9.002;2023-03-03T17:44:42;96247.06;;;5.88
67966;BMP280;54749;47.850;9.002;2023-03-03T17:47:19;96247.22;;;5.85
67966;BMP280;54749;47.850;9.002;2023-03-03T17:50:21;96254.66;;;5.86
67966;BMP280;54749;47.850;9.002;2023-03-03T17:53:05;96263.72;;;5.89
67966;BMP280;54749;47.850;9.002;2023-03-03T17:56:00;96259.59;;;5.88
67966;BMP280;54749;47.850;9.002;2023-03-03T17:58:53;96268.09;;;5.85
67966;BMP280;54749;47.850;9.002;2023-03-03T18:01:44;96275.78;;;5.82
67966;BMP280;54749;47.850;9.002;2023-03-03T18:04:47;96272.47;;;5.82
67966;BMP280;54749;47.850;9.002;2023-03-03T18:10:52;96269.38;;;5.77
67966;BMP280;54749;47.850;9.002;2023-03-03T18:13:46;96261.28;;;5.72
67966;BMP280;54749;47.850;9.002;2023-03-03T18:19:35;96278.56;;;5.61